createdAt,value
2018-08-03T00:01:58.409Z,6.87
2018-08-03T00:04:26.681Z,8.50
2018-08-03T00:06:54.944Z,7.30
2018-08-03T00:09:23.212Z,6.97
2018-08-03T00:11:51.445Z,7.20
2018-08-03T00:14:19.715Z,7.20
2018-08-03T00:16:47.966Z,7.10
2018-08-03T00:19:15.975Z,7.27
2018-08-03T00:21:44.217Z,7.10
2018-08-03T00:24:12.485Z,7.47
2018-08-03T00:26:40.737Z,6.90
2018-08-03T00:29:09.180Z,7.07
2018-08-03T00:31:37.404Z,6.63
2018-08-03T00:34:05.876Z,7.30
2018-08-03T00:36:34.132Z,7.37
2018-08-03T00:39:02.416Z,7.73
2018-08-03T00:41:30.715Z,7.40
2018-08-03T00:43:58.982Z,8.37
2018-08-03T00:46:27.228Z,7.30
2018-08-03T00:48:55.513Z,6.87
2018-08-03T00:51:23.752Z,7.43
2018-08-03T00:53:52.033Z,7.27
2018-08-03T00:56:20.352Z,7.07
2018-08-03T00:58:48.626Z,7.23
2018-08-03T01:01:16.903Z,7.03
2018-08-03T01:03:45.308Z,7.20
2018-08-03T01:06:13.589Z,7.27
2018-08-03T01:08:41.841Z,7.03
2018-08-03T01:11:10.073Z,7.57
2018-08-03T01:13:38.361Z,8.97
2018-08-03T01:16:06.697Z,7.67
2018-08-03T01:18:34.960Z,8.00
2018-08-03T01:21:03.228Z,7.07
2018-08-03T01:23:31.513Z,7.57
2018-08-03T01:25:59.848Z,7.40
2018-08-03T01:28:28.127Z,7.13
2018-08-03T01:30:56.340Z,7.30
2018-08-03T01:33:24.608Z,7.10
2018-08-03T01:35:52.864Z,7.73
2018-08-03T01:38:21.092Z,7.73
2018-08-03T01:40:49.369Z,8.17
2018-08-03T01:43:17.650Z,7.30
2018-08-03T01:45:46.258Z,7.80
2018-08-03T01:48:14.550Z,7.80
2018-08-03T01:50:42.814Z,7.53
2018-08-03T01:53:11.065Z,7.03
2018-08-03T01:55:39.342Z,7.70
2018-08-03T01:58:07.597Z,8.47
2018-08-03T02:00:35.890Z,7.87
2018-08-03T02:03:04.161Z,7.80
2018-08-03T02:05:32.452Z,7.80
2018-08-03T02:08:00.700Z,7.13
2018-08-03T02:10:28.966Z,7.57
2018-08-03T02:12:57.176Z,7.67
2018-08-03T02:15:25.440Z,7.63
2018-08-03T02:17:53.740Z,7.47
2018-08-03T02:20:22.013Z,7.97
2018-08-03T02:22:50.259Z,7.43
2018-08-03T02:25:18.531Z,7.53
2018-08-03T02:27:46.753Z,7.60
2018-08-03T02:30:15.006Z,7.93
2018-08-03T02:32:43.309Z,8.03
2018-08-03T02:35:11.578Z,7.80
2018-08-03T02:37:39.816Z,8.00
2018-08-03T02:40:08.088Z,8.30
2018-08-03T02:42:36.349Z,7.77
2018-08-03T02:45:05.058Z,8.17
2018-08-03T02:47:33.351Z,7.83
2018-08-03T02:50:01.605Z,8.17
2018-08-03T02:52:29.851Z,8.47
2018-08-03T02:54:58.112Z,7.70
2018-08-03T02:57:26.425Z,7.93
2018-08-03T02:59:54.725Z,7.03
2018-08-03T03:02:22.965Z,7.83
2018-08-03T03:04:51.242Z,7.83
2018-08-03T03:07:19.489Z,7.53
2018-08-03T03:09:47.752Z,8.30
2018-08-03T03:12:16.008Z,8.17
2018-08-03T03:14:44.269Z,7.93
2018-08-03T03:17:12.518Z,7.50
2018-08-03T03:19:40.818Z,8.70
2018-08-03T03:22:08.984Z,8.60
2018-08-03T03:24:37.262Z,7.83
2018-08-03T03:27:05.513Z,7.43
2018-08-03T03:29:33.776Z,8.13
2018-08-03T03:32:02.014Z,8.10
2018-08-03T03:34:30.308Z,7.63
2018-08-03T03:36:58.552Z,8.63
2018-08-03T03:39:26.810Z,8.80
2018-08-03T03:41:55.101Z,7.60
2018-08-03T03:44:23.360Z,8.40
2018-08-03T03:46:51.602Z,8.43
2018-08-03T03:49:19.836Z,7.60
2018-08-03T03:51:48.090Z,8.20
2018-08-03T03:54:16.353Z,7.50
2018-08-03T03:56:44.578Z,8.33
2018-08-03T03:59:12.884Z,8.63
2018-08-03T04:01:41.108Z,8.50
2018-08-03T04:04:09.405Z,8.67
2018-08-03T04:06:37.691Z,8.73
2018-08-03T04:09:09.065Z,8.40
2018-08-03T04:11:37.322Z,8.17
2018-08-03T04:14:05.569Z,8.83
2018-08-03T04:16:34.140Z,8.07
2018-08-03T04:19:02.403Z,7.53
2018-08-03T04:21:30.677Z,8.33
2018-08-03T04:23:58.951Z,7.47
2018-08-03T04:26:27.209Z,8.27
2018-08-03T04:28:55.523Z,8.60
2018-08-03T04:31:23.821Z,8.30
2018-08-03T04:33:52.200Z,7.93
2018-08-03T04:36:20.995Z,7.50
2018-08-03T04:38:49.575Z,7.73
2018-08-03T04:41:17.768Z,7.97
2018-08-03T04:43:46.044Z,7.73
2018-08-03T04:46:14.284Z,7.77
2018-08-03T04:48:42.591Z,8.10
2018-08-03T04:51:10.826Z,7.87
2018-08-03T04:53:39.135Z,8.30
2018-08-03T04:56:07.377Z,8.37
2018-08-03T04:58:35.674Z,8.33
2018-08-03T05:01:03.968Z,7.57
2018-08-03T05:03:32.198Z,8.03
2018-08-03T05:06:00.446Z,8.07
2018-08-03T05:08:28.696Z,7.83
2018-08-03T05:10:56.940Z,8.40
2018-08-03T05:13:25.503Z,7.27
2018-08-03T05:15:53.746Z,7.80
2018-08-03T05:18:22.014Z,8.00
2018-08-03T05:20:50.273Z,7.93
2018-08-03T05:23:18.853Z,8.23
2018-08-03T05:25:47.164Z,9.53
2018-08-03T05:28:15.429Z,8.37
2018-08-03T05:30:43.687Z,8.20
2018-08-03T05:33:11.973Z,7.97
2018-08-03T05:35:40.236Z,8.23
2018-08-03T05:38:08.736Z,8.10
2018-08-03T05:40:37.082Z,8.93
2018-08-03T05:43:05.350Z,7.70
2018-08-03T05:45:33.694Z,8.13
2018-08-03T05:48:01.866Z,7.83
2018-08-03T05:50:30.113Z,8.23
2018-08-03T05:52:58.382Z,7.73
2018-08-03T05:55:26.640Z,8.27
2018-08-03T05:57:55.049Z,8.17
2018-08-03T06:00:23.192Z,7.87
2018-08-03T06:02:51.460Z,8.10
2018-08-03T06:05:19.837Z,8.47
2018-08-03T06:07:48.085Z,8.37
2018-08-03T06:10:16.344Z,8.33
2018-08-03T06:12:44.648Z,7.87
2018-08-03T06:15:12.957Z,7.87
2018-08-03T06:17:41.215Z,8.00
2018-08-03T06:20:11.687Z,9.67
2018-08-03T06:22:40.180Z,8.87
2018-08-03T06:25:09.368Z,8.63
2018-08-03T06:27:37.701Z,8.60
2018-08-03T06:30:07.399Z,9.50
2018-08-03T06:32:36.148Z,7.53
2018-08-03T06:35:04.428Z,11.97
2018-08-03T06:37:32.706Z,8.70
2018-08-03T06:40:00.993Z,13.83
2018-08-03T06:42:29.452Z,8.60
2018-08-03T06:44:57.837Z,9.33
2018-08-03T06:47:26.106Z,8.47
2018-08-03T06:49:54.349Z,11.87
2018-08-03T06:52:22.643Z,9.20
2018-08-03T06:54:50.956Z,13.47
2018-08-03T06:57:19.245Z,8.87
2018-08-03T06:59:47.524Z,9.97
2018-08-03T07:02:15.531Z,9.30
2018-08-03T07:04:43.783Z,9.77
2018-08-03T07:07:12.049Z,8.77
2018-08-03T07:09:40.284Z,9.13
2018-08-03T07:12:08.577Z,9.57
2018-08-03T07:14:36.871Z,13.57
2018-08-03T07:17:05.149Z,10.70
2018-08-03T07:19:33.481Z,9.83
2018-08-03T07:22:01.745Z,10.33
2018-08-03T07:24:30.029Z,8.70
2018-08-03T07:26:58.551Z,8.77
2018-08-03T07:29:26.816Z,8.67
2018-08-03T07:31:55.062Z,9.57
2018-08-03T07:34:23.322Z,8.27
2018-08-03T07:36:51.676Z,10.70
2018-08-03T07:39:20.198Z,9.30
2018-08-03T07:41:48.509Z,10.90
2018-08-03T07:44:16.792Z,12.00
2018-08-03T07:46:45.046Z,14.60
2018-08-03T07:49:13.326Z,10.90
2018-08-03T07:51:42.176Z,9.50
2018-08-03T07:54:11.349Z,13.07
2018-08-03T07:56:40.071Z,10.37
2018-08-03T07:59:08.317Z,11.80
2018-08-03T08:01:36.772Z,10.17
2018-08-03T08:04:05.204Z,10.00
2018-08-03T08:06:33.559Z,9.27
2018-08-03T08:09:01.969Z,11.67
2018-08-03T08:11:30.303Z,9.73
2018-08-03T08:13:58.575Z,11.43
2018-08-03T08:16:26.872Z,10.50
2018-08-03T08:18:55.346Z,10.57
2018-08-03T08:21:23.605Z,9.50
2018-08-03T08:23:52.017Z,10.40
2018-08-03T08:26:21.449Z,11.23
2018-08-03T08:28:50.021Z,13.00
2018-08-03T08:31:18.294Z,10.30
2018-08-03T08:33:46.604Z,10.50
2018-08-03T08:36:14.878Z,10.03
2018-08-03T08:38:43.157Z,9.60
2018-08-03T08:41:11.445Z,13.27
2018-08-03T08:43:40.042Z,11.30
2018-08-03T08:46:08.328Z,12.83
2018-08-03T08:48:36.604Z,10.10
2018-08-03T08:51:04.881Z,14.57
2018-08-03T08:53:33.140Z,20.13
2018-08-03T08:56:01.398Z,11.50
2018-08-03T08:58:29.686Z,9.83
2018-08-03T09:00:58.004Z,10.17
2018-08-03T09:03:26.180Z,12.93
2018-08-03T09:05:54.488Z,12.20
2018-08-03T09:08:22.757Z,11.33
2018-08-03T09:10:51.044Z,13.13
2018-08-03T09:13:19.041Z,10.40
2018-08-03T09:15:47.313Z,11.53
2018-08-03T09:18:15.334Z,9.97
2018-08-03T09:20:43.705Z,10.13
2018-08-03T09:23:12.045Z,11.07
2018-08-03T09:25:40.277Z,9.57
2018-08-03T09:28:08.724Z,9.60
2018-08-03T09:30:37.003Z,10.93
2018-08-03T09:33:05.298Z,10.40
2018-08-03T09:35:33.931Z,10.40
2018-08-03T09:38:02.223Z,12.73
2018-08-03T09:40:30.469Z,11.57
2018-08-03T09:43:00.075Z,10.03
2018-08-03T09:45:29.646Z,10.47
2018-08-03T09:47:58.890Z,11.47
2018-08-03T09:50:27.853Z,10.13
2018-08-03T09:52:56.984Z,11.00
2018-08-03T09:55:26.600Z,9.87
2018-08-03T09:57:56.203Z,12.13
2018-08-03T10:00:30.276Z,10.03
2018-08-03T10:02:59.161Z,10.27
2018-08-03T10:05:29.092Z,11.83
2018-08-03T10:08:00.768Z,14.23
2018-08-03T10:10:29.965Z,8.83
2018-08-03T10:12:59.188Z,10.03
2018-08-03T10:15:28.337Z,10.43
2018-08-03T10:17:57.730Z,11.67
2018-08-03T10:20:25.990Z,10.83
2018-08-03T10:22:54.285Z,9.90
2018-08-03T10:25:22.580Z,10.53
2018-08-03T10:27:50.837Z,10.40
2018-08-03T10:30:19.145Z,10.57
2018-08-03T10:32:47.440Z,11.87
2018-08-03T10:35:15.693Z,9.47
2018-08-03T10:37:43.945Z,12.00
2018-08-03T10:40:12.197Z,9.80
2018-08-03T10:42:40.448Z,11.40
2018-08-03T10:45:08.730Z,9.80
2018-08-03T10:47:36.948Z,11.60
2018-08-03T10:50:05.247Z,14.40
2018-08-03T10:52:33.500Z,11.40
2018-08-03T10:55:01.757Z,11.93
2018-08-03T10:57:29.992Z,11.13
2018-08-03T10:59:58.242Z,10.13
2018-08-03T11:02:26.460Z,10.60
2018-08-03T11:04:54.737Z,10.17
2018-08-03T11:07:22.987Z,13.07
2018-08-03T11:09:51.380Z,10.23
2018-08-03T11:12:20.029Z,10.73
2018-08-03T11:14:48.615Z,10.27
2018-08-03T11:17:16.874Z,15.40
2018-08-03T11:19:45.153Z,12.40
2018-08-03T11:22:13.449Z,11.30
2018-08-03T11:24:41.802Z,11.63
2018-08-03T11:27:10.061Z,10.97
2018-08-03T11:29:38.385Z,10.33
2018-08-03T11:32:06.597Z,9.93
2018-08-03T11:34:34.988Z,10.77
2018-08-03T11:37:03.270Z,10.73
2018-08-03T11:39:31.505Z,10.93
2018-08-03T11:41:59.797Z,11.77
2018-08-03T11:44:28.105Z,11.37
2018-08-03T11:46:56.365Z,14.67
2018-08-03T11:49:24.636Z,10.40
2018-08-03T11:51:52.906Z,10.77
2018-08-03T11:54:21.153Z,10.43
2018-08-03T11:56:49.473Z,10.57
2018-08-03T11:59:17.703Z,10.83
2018-08-03T12:01:45.979Z,8.80
2018-08-03T12:04:14.261Z,10.83
2018-08-03T12:06:42.548Z,12.37
2018-08-03T12:09:10.829Z,11.23
2018-08-03T12:11:39.088Z,9.73
2018-08-03T12:14:07.361Z,10.63
2018-08-03T12:16:35.659Z,10.87
2018-08-03T12:19:03.943Z,11.43
2018-08-03T12:21:32.270Z,12.10
2018-08-03T12:24:00.559Z,13.00
2018-08-03T12:26:28.857Z,11.40
2018-08-03T12:28:57.169Z,10.63
2018-08-03T12:31:25.512Z,10.53
2018-08-03T12:33:53.916Z,10.97
2018-08-03T12:36:22.208Z,14.50
2018-08-03T12:38:50.502Z,10.63
2018-08-03T12:41:18.880Z,9.57
2018-08-03T12:43:47.143Z,10.87
2018-08-03T12:46:15.361Z,9.73
2018-08-03T12:48:43.386Z,10.43
2018-08-03T12:51:11.656Z,11.13
2018-08-03T12:53:39.924Z,9.80
2018-08-03T12:56:08.177Z,9.70
2018-08-03T12:58:36.416Z,11.10
2018-08-03T13:01:04.824Z,11.70
2018-08-03T13:03:33.056Z,9.43
2018-08-03T13:06:01.417Z,10.37
2018-08-03T13:08:29.823Z,10.60
2018-08-03T13:10:58.005Z,12.30
2018-08-03T13:13:26.257Z,10.57
2018-08-03T13:15:54.506Z,9.73
2018-08-03T13:18:22.804Z,13.93
2018-08-03T13:20:51.056Z,9.77
2018-08-03T13:23:19.299Z,9.47
2018-08-03T13:25:47.553Z,9.20
2018-08-03T13:28:15.924Z,9.50
2018-08-03T13:30:44.761Z,9.27
2018-08-03T13:33:13.047Z,10.17
2018-08-03T13:35:41.248Z,10.23
2018-08-03T13:38:09.592Z,10.07
2018-08-03T13:40:38.365Z,10.90
2018-08-03T13:43:06.640Z,10.03
2018-08-03T13:45:34.931Z,10.10
2018-08-03T13:48:03.265Z,10.10
2018-08-03T13:50:31.669Z,9.87
2018-08-03T13:52:59.920Z,9.27
2018-08-03T13:55:28.182Z,9.73
2018-08-03T13:57:56.502Z,10.63
2018-08-03T14:00:24.817Z,9.97
2018-08-03T14:02:53.069Z,9.17
2018-08-03T14:05:21.352Z,9.97
2018-08-03T14:07:49.676Z,9.43
2018-08-03T14:10:18.010Z,11.10
2018-08-03T14:12:46.438Z,9.40
2018-08-03T14:15:14.725Z,9.80
2018-08-03T14:17:43.009Z,11.37
2018-08-03T14:20:11.257Z,11.00
2018-08-03T14:22:39.549Z,10.13
2018-08-03T14:25:07.554Z,10.47
2018-08-03T14:27:36.475Z,9.77
2018-08-03T14:30:05.924Z,10.13
2018-08-03T14:32:34.197Z,10.83
2018-08-03T14:35:02.453Z,9.57
2018-08-03T14:37:30.673Z,9.43
2018-08-03T14:39:58.948Z,8.97
2018-08-03T14:42:26.954Z,9.87
2018-08-03T14:44:55.209Z,11.33
2018-08-03T14:47:23.510Z,11.30
2018-08-03T14:49:51.774Z,9.60
2018-08-03T14:52:20.004Z,9.63
2018-08-03T14:54:48.322Z,10.17
2018-08-03T14:57:16.603Z,10.07
2018-08-03T14:59:44.881Z,9.57
2018-08-03T15:02:13.156Z,9.13
2018-08-03T15:04:41.445Z,9.47
2018-08-03T15:07:09.869Z,8.90
2018-08-03T15:09:38.120Z,9.83
2018-08-03T15:12:06.401Z,10.47
2018-08-03T15:14:34.677Z,9.23
2018-08-03T15:17:03.152Z,9.60
2018-08-03T15:19:31.428Z,9.67
2018-08-03T15:21:59.693Z,10.47
2018-08-03T15:24:27.941Z,9.57
2018-08-03T15:26:56.193Z,9.13
2018-08-03T15:29:24.458Z,9.20
2018-08-03T15:31:52.732Z,12.17
2018-08-03T15:34:21.326Z,10.37
2018-08-03T15:36:49.589Z,9.07
2018-08-03T15:39:17.833Z,8.97
2018-08-03T15:41:46.073Z,12.10
2018-08-03T15:44:15.008Z,10.37
2018-08-03T15:46:43.386Z,8.77
2018-08-03T15:49:11.648Z,9.07
2018-08-03T15:51:39.884Z,9.20
2018-08-03T15:54:08.169Z,9.97
2018-08-03T15:56:36.431Z,10.47
2018-08-03T15:59:04.725Z,11.67
2018-08-03T16:01:33.000Z,12.93
2018-08-03T16:04:01.231Z,9.73
2018-08-03T16:06:29.192Z,9.80
2018-08-03T16:08:57.462Z,9.10
2018-08-03T16:11:25.738Z,9.53
2018-08-03T16:13:53.972Z,8.97
2018-08-03T16:16:22.209Z,10.17
2018-08-03T16:18:50.492Z,9.90
2018-08-03T16:21:18.737Z,9.10
2018-08-03T16:23:47.025Z,10.33
2018-08-03T16:26:15.303Z,9.77
2018-08-03T16:28:43.565Z,8.40
2018-08-03T16:31:11.915Z,11.67
2018-08-03T16:33:40.173Z,9.77
2018-08-03T16:36:08.464Z,12.53
2018-08-03T16:38:36.779Z,8.63
2018-08-03T16:41:05.073Z,9.10
2018-08-03T16:43:33.324Z,11.03
2018-08-03T16:46:01.620Z,10.10
2018-08-03T16:48:29.865Z,11.13
2018-08-03T16:50:58.116Z,9.13
2018-08-03T16:53:26.350Z,9.13
2018-08-03T16:55:54.590Z,9.40
2018-08-03T16:58:22.900Z,9.77
2018-08-03T17:00:51.218Z,10.10
2018-08-03T17:03:19.473Z,9.93
2018-08-03T17:05:47.732Z,10.23
2018-08-03T17:08:16.158Z,11.50
2018-08-03T17:10:44.416Z,10.50
2018-08-03T17:13:12.429Z,9.83
2018-08-03T17:15:40.938Z,8.90
2018-08-03T17:18:09.236Z,10.50
2018-08-03T17:20:37.524Z,10.60
2018-08-03T17:23:05.909Z,10.13
2018-08-03T17:25:36.400Z,9.00
2018-08-03T17:28:05.521Z,9.40
2018-08-03T17:30:34.870Z,10.73
2018-08-03T17:33:03.171Z,10.00
2018-08-03T17:35:31.695Z,9.73
2018-08-03T17:38:00.094Z,9.03
2018-08-03T17:40:28.397Z,11.73
2018-08-03T17:42:56.777Z,11.43
2018-08-03T17:45:24.946Z,9.03
2018-08-03T17:47:53.320Z,9.57
2018-08-03T17:50:22.508Z,8.80
2018-08-03T17:52:51.097Z,8.97
2018-08-03T17:55:19.393Z,12.57
2018-08-03T17:57:47.617Z,9.67
2018-08-03T18:00:15.896Z,10.03
2018-08-03T18:02:44.499Z,9.10
2018-08-03T18:05:12.787Z,9.23
2018-08-03T18:07:41.101Z,9.87
2018-08-03T18:10:09.716Z,9.63
2018-08-03T18:12:38.975Z,9.17
2018-08-03T18:15:07.817Z,9.03
2018-08-03T18:17:36.073Z,9.13
2018-08-03T18:20:05.017Z,9.67
2018-08-03T18:22:33.308Z,9.83
2018-08-03T18:25:02.627Z,9.73
2018-08-03T18:27:31.112Z,9.73
2018-08-03T18:30:00.102Z,8.80
2018-08-03T18:32:28.398Z,9.27
2018-08-03T18:34:56.632Z,8.63
2018-08-03T18:37:24.929Z,10.13
2018-08-03T18:39:53.179Z,8.90
2018-08-03T18:42:21.436Z,9.27
2018-08-03T18:44:49.720Z,9.03
2018-08-03T18:47:17.934Z,9.30
2018-08-03T18:49:47.150Z,10.10
2018-08-03T18:52:15.526Z,8.93
2018-08-03T18:54:43.936Z,9.50
2018-08-03T18:57:12.394Z,8.80
2018-08-03T18:59:40.632Z,9.67
2018-08-03T19:02:08.917Z,8.77
2018-08-03T19:04:38.239Z,9.70
2018-08-03T19:07:06.653Z,9.40
2018-08-03T19:09:35.279Z,10.40
2018-08-03T19:12:03.559Z,9.73
2018-08-03T19:14:31.941Z,10.67
2018-08-03T19:17:00.307Z,9.77
2018-08-03T19:19:28.835Z,9.50
2018-08-03T19:21:57.371Z,9.93
2018-08-03T19:24:25.752Z,10.80
2018-08-03T19:26:54.143Z,9.90
2018-08-03T19:29:22.442Z,10.27
2018-08-03T19:31:50.699Z,9.37
2018-08-03T19:34:19.014Z,9.57
2018-08-03T19:36:47.468Z,10.73
2018-08-03T19:39:15.984Z,10.30
2018-08-03T19:41:44.347Z,11.53
2018-08-03T19:44:12.748Z,10.40
2018-08-03T19:46:41.052Z,9.37
2018-08-03T19:49:09.715Z,10.50
2018-08-03T19:51:38.125Z,9.27
2018-08-03T19:54:06.413Z,10.13
2018-08-03T19:56:34.800Z,9.40
2018-08-03T19:59:03.475Z,10.00
2018-08-03T20:01:31.984Z,9.20
2018-08-03T20:04:00.338Z,11.33
2018-08-03T20:06:28.633Z,8.63
2018-08-03T20:08:57.135Z,9.33
2018-08-03T20:11:25.820Z,9.30
2018-08-03T20:13:54.109Z,8.60
2018-08-03T20:16:22.482Z,9.30
2018-08-03T20:18:50.799Z,8.27
2018-08-03T20:21:19.082Z,10.30
2018-08-03T20:23:47.799Z,9.33
2018-08-03T20:26:16.052Z,9.50
2018-08-03T20:28:44.288Z,8.33
2018-08-03T20:31:12.547Z,9.43
2018-08-03T20:33:40.788Z,8.47
2018-08-03T20:36:09.145Z,8.67
2018-08-03T20:38:37.408Z,9.17
2018-08-03T20:41:05.689Z,9.07
2018-08-03T20:43:33.961Z,8.97
2018-08-03T20:46:02.251Z,8.90
2018-08-03T20:48:30.500Z,9.43
2018-08-03T20:50:58.771Z,8.47
2018-08-03T20:53:27.053Z,9.03
2018-08-03T20:55:55.308Z,9.30
2018-08-03T20:58:23.578Z,8.30
2018-08-03T21:00:51.799Z,9.20
2018-08-03T21:03:20.089Z,8.73
2018-08-03T21:05:48.462Z,8.97
2018-08-03T21:08:16.706Z,8.87
2018-08-03T21:10:44.932Z,8.67
2018-08-03T21:13:13.186Z,8.70
2018-08-03T21:15:41.436Z,8.63
2018-08-03T21:18:09.756Z,8.70
2018-08-03T21:20:37.992Z,10.60
2018-08-03T21:23:06.252Z,8.97
2018-08-03T21:25:34.512Z,8.40
2018-08-03T21:28:02.737Z,8.57
2018-08-03T21:30:31.036Z,8.87
2018-08-03T21:32:59.273Z,8.97
2018-08-03T21:35:27.524Z,8.63
2018-08-03T21:37:55.756Z,8.73
2018-08-03T21:40:24.014Z,9.00
2018-08-03T21:42:52.240Z,9.00
2018-08-03T21:45:20.477Z,9.43
2018-08-03T21:47:48.733Z,8.70
2018-08-03T21:50:16.991Z,9.13
2018-08-03T21:52:45.261Z,8.90
2018-08-03T21:55:13.501Z,9.03
2018-08-03T21:57:41.767Z,7.67
2018-08-03T22:00:13.834Z,8.90
2018-08-03T22:02:42.081Z,8.57
2018-08-03T22:05:10.348Z,8.63
2018-08-03T22:07:38.584Z,9.17
2018-08-03T22:10:07.016Z,8.93
2018-08-03T22:12:35.405Z,8.87
2018-08-03T22:15:03.757Z,8.70
2018-08-03T22:17:32.005Z,9.03
2018-08-03T22:20:00.263Z,8.77
2018-08-03T22:22:28.492Z,9.10
2018-08-03T22:24:56.756Z,8.83
2018-08-03T22:27:25.056Z,8.73
2018-08-03T22:29:53.338Z,8.97
2018-08-03T22:32:21.667Z,7.67
2018-08-03T22:34:49.887Z,8.63
2018-08-03T22:37:18.201Z,8.90
2018-08-03T22:39:46.310Z,8.97
2018-08-03T22:42:14.628Z,8.40
2018-08-03T22:44:42.895Z,9.60
2018-08-03T22:47:11.156Z,8.47
2018-08-03T22:49:39.480Z,8.77
2018-08-03T22:52:07.728Z,8.73
2018-08-03T22:54:35.954Z,8.10
2018-08-03T22:57:04.216Z,8.43
2018-08-03T22:59:32.456Z,8.77
2018-08-03T23:02:00.740Z,8.83
2018-08-03T23:04:29.008Z,8.57
2018-08-03T23:06:57.260Z,8.77
2018-08-03T23:09:25.509Z,8.43
2018-08-03T23:11:53.772Z,8.40
2018-08-03T23:14:22.028Z,8.60
2018-08-03T23:16:50.306Z,8.80
2018-08-03T23:19:18.553Z,8.50
2018-08-03T23:21:46.930Z,7.63
2018-08-03T23:24:15.169Z,8.90
2018-08-03T23:26:43.448Z,8.50
2018-08-03T23:29:11.769Z,8.40
2018-08-03T23:31:40.035Z,8.03
2018-08-03T23:34:08.588Z,8.67
2018-08-03T23:36:36.885Z,8.83
2018-08-03T23:39:07.054Z,8.67
2018-08-03T23:41:35.362Z,8.67
2018-08-03T23:44:03.673Z,8.80
2018-08-03T23:46:31.965Z,8.10
2018-08-03T23:49:00.237Z,8.70
2018-08-03T23:51:28.480Z,7.87
2018-08-03T23:53:56.789Z,7.87
2018-08-03T23:56:25.093Z,8.43
2018-08-03T23:58:53.357Z,8.37
